Latest Weather Observations for Albury

IDN60801

Issued at 7:02 pm EDT Monday 27 March 2017 (issued every 30 minutes, with the page automatically refreshed every 10 minutes)

About weather observations | Map of weather stations | Latest weather observations for NSW | Other Formats
Station Details ID: 072160 Name: ALBURY AIRPORT AWS Lat: -36.07 Lon: 146.95 Height: 163.5 m
Data from the previous 72 hours. | See also: Recent months at Albury
Date/Time
EDT
Temp
°C
App
Temp
°C
Dew
Point
°C
Rel
Hum
%
Delta-T
°C
Wind Press
QNH
hPa
Press
MSL
hPa
Rain since
9am
mm
Dir  Spd
km/h
Gust
km/h
Spd
kts
Gust
kts
27/07:00pm 22.5 22.8 17.8 75 2.9 WSW 13 15 7 8 1009.1 1008.6 -
27/06:30pm 23.8 20.4 16.8 65 4.3 SW 30 50 16 27 1009.4 1008.8 2.2
27/06:28pm 24.7 21.7 16.7 61 5.0 WSW 28 50 15 27 1009.8 1009.2 2.0
27/06:00pm 26.2 23.9 16.7 56 5.9 WSW 24 35 13 19 1008.6 1008.1 2.0
27/05:33pm 25.3 24.7 21.2 78 2.7 W 26 37 14 20 1008.1 1007.6 2.0
27/05:30pm 25.1 24.0 21.0 78 2.7 W 28 37 15 20 1008.0 1007.5 2.0
27/05:16pm 23.4 18.9 20.2 82 2.1 WNW 44 82 24 44 1007.5 1007.0 2.0
27/05:14pm 23.2 18.3 19.4 79 2.4 WNW 44 82 24 44 1007.5 1007.0 1.4
27/05:13pm 23.3 18.4 19.0 77 2.7 NW 43 82 23 44 1007.4 1006.9 0.8
27/05:11pm 28.9 25.6 18.4 53 6.8 NNW 33 72 18 39 1006.5 1006.0 0.0
27/05:10pm 31.1 28.3 18.1 46 8.4 NNW 30 54 16 29 1006.0 1005.4 0.0
27/05:09pm 32.5 29.8 17.5 40 9.7 NNW 28 54 15 29 1005.5 1004.9 0.0
27/05:00pm 33.6 30.7 16.0 34 11.2 NNW 26 41 14 22 1004.6 1004.0 0.0
27/04:30pm 33.9 33.1 18.0 39 10.4 N 19 30 10 16 1005.5 1004.9 0.0
27/04:00pm 33.0 31.9 17.2 39 10.2 N 19 24 10 13 1006.3 1005.8 0.0
27/03:30pm 33.7 32.1 17.4 37 10.5 NNE 22 30 12 16 1007.1 1006.6 0.0
27/03:00pm 32.9 32.1 17.9 41 9.7 N 19 28 10 15 1008.0 1007.5 0.0
27/02:30pm 33.0 31.5 17.6 40 9.9 N 22 30 12 16 1008.2 1007.7 0.0
27/02:00pm 32.6 30.9 18.0 41 9.5 NNE 24 39 13 21 1008.8 1008.3 0.0
27/01:30pm 32.0 31.2 17.1 41 9.5 N 17 28 9 15 1009.8 1009.2 0.0
27/01:00pm 31.6 30.7 18.2 44 8.7 NE 20 28 11 15 1010.1 1009.5 0.0
27/12:30pm 30.6 29.7 18.3 47 8.0 NE 20 28 11 15 1010.7 1010.1 0.0
27/12:00pm 29.6 28.7 17.8 49 7.6 NE 19 28 10 15 1011.4 1010.8 0.0
27/11:30am 28.8 27.7 17.3 49 7.3 NE 19 26 10 14 1012.0 1011.5 0.0
27/11:00am 28.0 26.7 17.2 52 6.8 ENE 20 26 11 14 1012.4 1011.9 0.0
27/10:30am 27.1 27.1 17.3 55 6.2 NE 13 20 7 11 1012.9 1012.4 0.0
27/10:00am 25.1 26.8 18.5 67 4.2 ESE 7 9 4 5 1013.2 1012.7 0.0
27/09:30am 23.0 24.5 17.7 72 3.3 ESE 6 7 3 4 1013.4 1012.9 0.0
27/09:00am 20.2 21.8 16.8 81 2.1 S 4 9 2 5 1013.5 1013.0 0.0
27/08:30am 18.8 21.1 16.8 88 1.2 CALM 0 0 0 0 1013.5 1013.0 0.0
27/08:00am 17.8 19.9 16.3 91 0.9 CALM 0 2 0 1 1013.4 1012.9 0.0
27/07:30am 17.7 18.6 16.2 91 0.9 ESE 6 7 3 4 1013.4 1012.9 0.0
27/07:00am 17.7 19.6 16.6 93 0.7 NE 2 7 1 4 1013.3 1012.8 0.0
27/06:30am 17.7 19.6 16.7 94 0.6 NNE 2 6 1 3 1012.9 1012.4 0.0
27/06:00am 17.8 20.1 16.8 94 0.6 CALM 0 0 0 0 1012.6 1012.1 0.0
27/05:30am 18.0 20.3 16.7 92 0.8 CALM 0 0 0 0 1012.3 1011.8 0.0
27/05:00am 18.2 18.8 16.7 91 0.9 ENE 9 11 5 6 1012.5 1012.0 0.0
27/04:30am 18.2 20.5 16.7 91 0.9 CALM 0 0 0 0 1012.4 1011.9 0.0
27/04:00am 18.5 20.6 17.2 92 0.8 N 2 6 1 3 1012.2 1011.7 0.0
27/03:30am 18.8 21.2 16.9 89 1.2 CALM 0 6 0 3 1012.6 1012.1 0.0
27/03:00am 19.1 20.3 16.9 87 1.3 ENE 6 6 3 3 1012.8 1012.3 0.0
27/02:30am 19.0 21.3 16.8 87 1.3 CALM 0 0 0 0 1013.0 1012.5 0.0
27/02:00am 18.9 21.1 16.5 86 1.4 CALM 0 0 0 0 1013.1 1012.6 0.0
27/01:30am 19.6 22.1 17.2 86 1.5 CALM 0 0 0 0 1013.0 1012.5 0.0
27/01:00am 19.4 21.6 16.6 84 1.7 CALM 0 0 0 0 1013.4 1012.9 0.0
27/12:30am 20.2 22.6 17.0 82 2.0 CALM 0 0 0 0 1013.6 1013.1 0.0
27/12:00am 20.3 22.6 16.7 80 2.2 CALM 0 0 0 0 1013.8 1013.3 0.0
 
Date/Time
EDT
Temp
°C
App
Temp
°C
Dew
Point
°C
Rel
Hum
%
Delta-T
°C
Wind Press
QNH
hPa
Press
MSL
hPa
Rain since
9am
mm
Dir  Spd
km/h
Gust
km/h
Spd
kts
Gust
kts
26/11:30pm 21.1 23.5 17.1 78 2.5 CALM 0 0 0 0 1014.0 1013.5 0.0
26/11:00pm 21.7 24.4 17.7 78 2.5 CALM 0 0 0 0 1014.0 1013.5 0.0
26/10:30pm 22.0 23.6 17.8 77 2.6 ESE 6 9 3 5 1014.0 1013.5 0.0
26/10:00pm 22.7 25.5 18.0 75 3.0 CALM 0 0 0 0 1014.1 1013.6 0.0
26/09:30pm 23.1 25.8 17.8 72 3.3 CALM 0 0 0 0 1013.8 1013.3 0.0
26/09:00pm 24.7 27.5 17.9 66 4.3 CALM 0 0 0 0 1013.5 1013.0 0.0
26/08:30pm 25.2 27.9 17.7 63 4.7 CALM 0 0 0 0 1013.3 1012.8 0.0
26/08:00pm 25.0 27.4 17.0 61 5.0 CALM 0 0 0 0 1012.9 1012.4 0.0
26/07:30pm 26.2 27.6 17.3 58 5.6 ESE 6 9 3 5 1012.8 1012.3 0.0
26/07:00pm 26.9 28.0 17.1 55 6.2 SE 7 9 4 5 1012.7 1012.2 0.0
26/06:30pm 28.0 29.1 16.6 50 7.1 SE 6 9 3 5 1012.6 1012.1 0.0
26/06:00pm 29.1 29.2 15.6 44 8.4 SE 9 11 5 6 1012.3 1011.8 0.0
26/05:30pm 29.8 29.7 15.9 43 8.7 SE 11 17 6 9 1012.4 1011.9 0.0
26/05:00pm 29.7 29.6 16.1 43 8.5 SE 11 15 6 8 1012.4 1011.9 0.0
26/04:30pm 29.7 29.4 15.4 42 8.8 SSE 11 15 6 8 1012.6 1012.1 0.0
26/04:00pm 29.5 29.3 15.6 43 8.6 SSE 11 17 6 9 1012.7 1012.2 0.0
26/03:30pm 29.9 29.7 15.6 42 8.9 SSE 11 17 6 9 1013.0 1012.5 0.0
26/03:00pm 29.0 29.1 15.5 44 8.3 SE 9 13 5 7 1013.2 1012.7 0.0
26/02:30pm 29.0 29.1 15.5 44 8.3 SSE 9 13 5 7 1013.4 1012.9 0.0
26/02:00pm 28.6 28.7 15.5 45 8.1 SSE 9 15 5 8 1013.9 1013.4 0.0
26/01:30pm 28.0 29.2 16.0 48 7.4 ENE 4 9 2 5 1014.5 1014.0 0.0
26/01:00pm 26.9 27.5 16.8 54 6.3 SE 9 13 5 7 1015.0 1014.5 0.0
26/12:30pm 26.3 27.2 16.5 54 6.1 SSE 7 11 4 6 1015.4 1014.9 0.0
26/12:00pm 25.4 26.3 16.5 58 5.5 ESE 7 13 4 7 1015.5 1015.0 0.0
26/11:30am 24.2 24.7 16.5 62 4.7 SE 9 11 5 6 1016.0 1015.4 0.0
26/11:00am 23.9 24.7 17.2 66 4.2 E 9 15 5 8 1016.2 1015.6 0.0
26/10:30am 22.6 22.7 16.6 69 3.7 SE 11 17 6 9 1016.3 1015.7 0.0
26/10:00am 21.7 22.4 17.1 75 2.8 SE 9 11 5 6 1016.2 1015.6 0.0
26/09:30am 20.3 22.4 16.3 78 2.4 CALM 0 0 0 0 1016.4 1015.8 0.0
26/09:00am 19.0 20.1 16.6 86 1.5 SE 6 9 3 5 1016.1 1015.5 0.2
26/08:30am 17.2 19.3 16.2 94 0.6 CALM 0 0 0 0 1015.9 1015.3 0.2
26/08:00am 17.1 19.2 16.3 95 0.5 CALM 0 0 0 0 1015.5 1015.0 0.2
26/07:30am 16.8 18.7 15.8 94 0.6 CALM 0 0 0 0 1015.1 1014.6 0.2
26/07:00am 16.6 18.6 16.0 96 0.4 CALM 0 2 0 1 1014.9 1014.4 0.2
26/06:30am 16.4 18.3 15.8 96 0.4 CALM 0 0 0 0 1014.5 1014.0 0.2
26/06:00am 16.3 17.8 15.7 96 0.4 NW 2 6 1 3 1014.3 1013.8 0.2
26/05:30am 16.4 18.2 15.4 94 0.6 CALM 0 0 0 0 1014.3 1013.8 0.2
26/05:00am 16.6 18.4 15.6 94 0.6 CALM 0 0 0 0 1014.1 1013.6 0.2
26/04:30am 16.4 18.2 15.4 94 0.6 CALM 0 0 0 0 1013.9 1013.4 0.2
26/04:00am 16.8 18.3 15.7 93 0.6 ESE 2 6 1 3 1014.0 1013.5 0.2
26/03:30am 16.9 18.4 15.6 92 0.8 ENE 2 6 1 3 1014.2 1013.7 0.2
26/03:00am 17.1 19.0 15.8 92 0.8 CALM 0 0 0 0 1014.4 1013.9 0.2
26/02:30am 17.5 19.1 16.0 91 0.9 E 2 7 1 4 1014.5 1014.0 0.2
26/02:00am 17.5 19.4 15.8 90 1.0 CALM 0 0 0 0 1014.8 1014.3 0.2
26/01:30am 17.2 18.3 15.5 90 1.0 WNW 4 6 2 3 1014.7 1014.2 0.2
26/01:00am 17.5 19.4 15.8 90 1.0 CALM 0 0 0 0 1014.7 1014.2 0.2
26/12:30am 18.0 19.9 15.8 87 1.3 CALM 0 0 0 0 1015.1 1014.6 0.2
26/12:00am 18.0 19.8 15.4 85 1.5 CALM 0 0 0 0 1015.0 1014.5 0.2
 
Date/Time
EDT
Temp
°C
App
Temp
°C
Dew
Point
°C
Rel
Hum
%
Delta-T
°C
Wind Press
QNH
hPa
Press
MSL
hPa
Rain since
9am
mm
Dir  Spd
km/h
Gust
km/h
Spd
kts
Gust
kts
25/11:30pm 18.6 19.4 15.8 84 1.7 ESE 6 7 3 4 1014.9 1014.4 0.2
25/11:00pm 18.6 19.5 16.0 85 1.6 E 6 7 3 4 1015.0 1014.5 0.2
25/10:30pm 18.4 20.3 15.8 85 1.5 CALM 0 0 0 0 1014.9 1014.4 0.2
25/10:00pm 18.6 20.4 15.5 82 1.8 CALM 0 0 0 0 1014.7 1014.2 0.2
25/09:30pm 19.1 21.1 16.1 83 1.8 CALM 0 0 0 0 1014.5 1014.0 0.2
25/09:00pm 19.8 21.7 15.7 77 2.5 CALM 0 0 0 0 1014.2 1013.7 0.2
25/08:30pm 19.5 21.5 16.0 80 2.1 CALM 0 0 0 0 1013.9 1013.4 0.2
25/08:00pm 20.9 22.9 16.1 74 2.9 CALM 0 0 0 0 1013.3 1012.8 0.2
25/07:30pm 21.4 22.5 15.5 69 3.5 SE 4 6 2 3 1013.4 1012.9 0.2
25/07:00pm 22.6 23.2 15.4 64 4.3 SSE 6 9 3 5 1013.3 1012.8 0.2
25/06:30pm 23.4 24.0 15.7 62 4.7 SSE 7 11 4 6 1013.2 1012.7 0.2
25/06:00pm 24.0 24.1 15.5 59 5.2 SSE 9 13 5 7 1013.0 1012.5 0.2
25/05:30pm 23.8 23.6 15.6 60 5.0 SSE 11 15 6 8 1013.1 1012.6 0.2
25/05:00pm 24.1 23.5 15.6 59 5.2 SSE 13 15 7 8 1013.0 1012.5 0.2
25/04:30pm 24.0 23.9 16.0 61 4.9 ESE 11 17 6 9 1013.2 1012.7 0.2
25/04:00pm 23.4 22.6 16.2 64 4.4 SSE 15 19 8 10 1013.5 1013.0 0.2
25/03:30pm 22.9 21.5 15.5 63 4.5 SE 17 22 9 12 1013.7 1013.2 0.2
25/03:00pm 21.7 20.8 15.8 69 3.6 SE 15 20 8 11 1014.0 1013.5 0.2
25/02:30pm 21.3 19.8 15.2 68 3.6 SSE 17 22 9 12 1014.2 1013.7 0.2
25/02:00pm 21.6 20.1 15.4 68 3.7 SSE 17 26 9 14 1014.4 1013.9 0.2
25/01:30pm 21.2 20.1 15.3 69 3.5 SSE 15 19 8 10 1014.8 1014.3 0.2
25/01:00pm 21.9 21.4 16.0 69 3.6 SE 13 17 7 9 1015.0 1014.5 0.2
25/12:30pm 21.9 21.3 15.7 68 3.7 SE 13 20 7 11 1015.3 1014.8 0.2
25/12:00pm 20.7 21.6 18.5 87 1.4 SE 11 15 6 8 1015.6 1015.1 0.0
25/11:30am 19.3 19.8 16.5 84 1.7 SE 9 11 5 6 1016.1 1015.5 0.0
25/11:00am 19.0 20.0 16.4 85 1.6 S 6 7 3 4 1016.2 1015.6 0.0
25/10:30am 19.0 19.8 15.9 82 1.9 SE 6 7 3 4 1016.1 1015.5 0.0
25/10:00am 18.8 19.4 15.9 83 1.7 SSE 7 11 4 6 1015.9 1015.3 0.0
25/09:30am 19.3 21.3 16.0 81 2.0 CALM 0 0 0 0 1015.5 1015.0 0.0
25/09:00am 18.8 20.3 15.7 82 1.8 NE 2 6 1 3 1015.4 1014.9 0.2
25/08:30am 18.4 18.9 15.1 81 1.9 ESE 6 9 3 5 1015.3 1014.8 0.2
25/08:00am 18.1 18.7 15.2 83 1.7 SE 6 9 3 5 1015.1 1014.6 0.2
25/07:30am 17.6 18.1 14.9 84 1.6 S 6 7 3 4 1014.9 1014.4 0.2
25/07:00am 17.9 18.4 15.0 83 1.7 ESE 6 7 3 4 1014.8 1014.3 0.2
25/06:30am 18.1 18.7 15.2 83 1.7 ESE 6 7 3 4 1014.7 1014.2 0.2
25/06:00am 17.8 19.0 14.9 83 1.7 SE 2 7 1 4 1014.8 1014.3 0.2
25/05:30am 18.0 18.4 14.7 81 1.9 E 6 7 3 4 1015.0 1014.5 0.2
25/05:00am 17.9 18.1 14.8 82 1.8 SE 7 9 4 5 1015.0 1014.5 0.2
25/04:30am 18.0 17.5 14.9 82 1.8 SSE 11 13 6 7 1015.0 1014.5 0.2
25/04:00am 18.3 18.1 14.6 79 2.2 SSE 9 13 5 7 1015.0 1014.5 0.2
25/03:30am 19.5 19.0 13.9 70 3.2 E 9 13 5 7 1015.2 1014.7 0.2
25/03:00am 18.7 18.7 14.2 75 2.6 SE 7 9 4 5 1014.7 1014.2 0.2
25/02:30am 19.7 19.1 13.6 68 3.5 ESE 9 13 5 7 1015.3 1014.8 0.2
25/02:00am 19.7 19.2 13.9 69 3.4 ESE 9 11 5 6 1015.5 1015.0 0.2
25/01:30am 19.7 19.8 14.5 72 3.0 E 7 11 4 6 1016.1 1015.5 0.2
25/01:00am 21.2 20.5 13.1 60 4.7 NE 9 13 5 7 1016.2 1015.6 0.2
25/12:30am 19.1 18.7 14.1 73 2.9 SSW 9 11 5 6 1016.1 1015.5 0.2
25/12:00am 20.9 19.9 13.4 62 4.3 NE 11 13 6 7 1016.3 1015.7 0.2
 
Date/Time
EDT
Temp
°C
App
Temp
°C
Dew
Point
°C
Rel
Hum
%
Delta-T
°C
Wind Press
QNH
hPa
Press
MSL
hPa
Rain since
9am
mm
Dir  Spd
km/h
Gust
km/h
Spd
kts
Gust
kts
24/11:30pm 20.8 19.9 13.7 64 4.1 NE 11 13 6 7 1016.1 1015.5 0.2
24/11:00pm 21.3 21.2 14.0 63 4.3 ENE 7 11 4 6 1016.3 1015.7 0.2
24/10:30pm 22.1 20.7 13.5 58 5.0 NE 13 17 7 9 1016.4 1015.8 0.2
24/10:00pm 22.8 21.9 13.6 56 5.4 NE 11 17 6 9 1016.3 1015.7 0.2
24/09:30pm 23.2 22.3 13.7 55 5.6 N 11 15 6 8 1016.3 1015.7 0.2
24/09:00pm 23.6 23.1 13.8 54 5.8 N 9 15 5 8 1016.0 1015.4 0.2
24/08:30pm 22.2 22.0 14.8 63 4.4 NNE 9 13 5 7 1015.5 1015.0 0.2
24/08:00pm 23.5 23.3 13.1 52 6.0 SSW 6 6 3 3 1015.5 1015.0 0.2
24/07:30pm 23.6 24.4 13.8 54 5.8 SW 2 7 1 4 1015.3 1014.8 0.2

Other Formats:

Comma delimited format used in spreadsheet applications
http://www.bom.gov.au/fwo/IDN60801/IDN60801.95896.axf

JavaScript Object Notation format (JSON) in row-major order
http://www.bom.gov.au/fwo/IDN60801/IDN60801.95896.json